createdAt,value
2018-03-26T00:00:06.768Z,46.00
2018-03-26T00:01:49.896Z,50.10
2018-03-26T00:03:33.007Z,46.07
2018-03-26T00:05:16.136Z,46.23
2018-03-26T00:06:59.279Z,43.87
2018-03-26T00:08:42.490Z,47.03
2018-03-26T00:10:25.713Z,52.50
2018-03-26T00:12:08.922Z,52.23
2018-03-26T00:13:52.047Z,47.77
2018-03-26T00:15:35.257Z,51.80
2018-03-26T00:17:18.384Z,50.40
2018-03-26T00:19:01.584Z,45.60
2018-03-26T00:20:44.692Z,48.23
2018-03-26T00:22:27.827Z,51.30
2018-03-26T00:24:11.031Z,49.33
2018-03-26T00:25:54.168Z,52.97
2018-03-26T00:27:37.315Z,46.73
2018-03-26T00:29:21.948Z,55.60
2018-03-26T00:31:06.577Z,48.20
2018-03-26T00:32:49.723Z,49.77
2018-03-26T00:34:33.642Z,51.33
2018-03-26T00:36:17.561Z,49.53
2018-03-26T00:38:00.811Z,53.43
2018-03-26T00:39:44.746Z,47.47
2018-03-26T00:41:28.660Z,57.97
2018-03-26T00:43:11.776Z,49.43
2018-03-26T00:44:54.919Z,53.90
2018-03-26T00:46:38.802Z,47.80
2018-03-26T00:48:21.944Z,68.07
2018-03-26T00:50:05.164Z,62.10
2018-03-26T00:51:48.392Z,47.70
2018-03-26T00:53:44.336Z,52.10
2018-03-26T00:55:28.233Z,46.80
2018-03-26T00:57:11.358Z,43.00
2018-03-26T00:58:54.468Z,46.10
2018-03-26T01:00:37.579Z,52.83
2018-03-26T01:02:20.792Z,48.93
2018-03-26T01:04:04.017Z,48.83
2018-03-26T01:05:47.227Z,45.00
2018-03-26T01:07:30.372Z,50.57
2018-03-26T01:09:13.475Z,48.50
2018-03-26T01:10:56.704Z,50.27
2018-03-26T01:12:39.853Z,48.30
2018-03-26T01:14:22.966Z,55.20
2018-03-26T01:16:06.146Z,50.97
2018-03-26T01:17:49.344Z,49.33
2018-03-26T01:19:32.458Z,55.90
2018-03-26T01:21:15.569Z,53.00
2018-03-26T01:22:58.723Z,52.40
2018-03-26T01:24:42.628Z,51.07
2018-03-26T01:26:25.749Z,50.40
2018-03-26T01:28:08.880Z,45.63
2018-03-26T01:29:52.112Z,56.77
2018-03-26T01:31:35.998Z,59.40
2018-03-26T01:33:19.128Z,49.17
2018-03-26T01:35:02.241Z,46.93
2018-03-26T01:36:45.370Z,55.80
2018-03-26T01:38:28.499Z,69.20
2018-03-26T01:40:11.711Z,60.57
2018-03-26T01:41:54.821Z,52.40
2018-03-26T01:43:37.954Z,43.53
2018-03-26T01:45:21.176Z,44.53
2018-03-26T01:47:05.084Z,48.03
2018-03-26T01:48:48.195Z,52.83
2018-03-26T01:50:31.308Z,48.30
2018-03-26T01:52:14.424Z,52.00
2018-03-26T01:53:57.566Z,47.70
2018-03-26T01:55:40.779Z,53.50
2018-03-26T01:57:23.903Z,54.80
2018-03-26T01:59:07.031Z,45.57
2018-03-26T02:00:50.903Z,50.37
2018-03-26T02:02:34.033Z,54.57
2018-03-26T02:04:17.145Z,48.87
2018-03-26T02:06:00.303Z,50.97
2018-03-26T02:07:43.430Z,49.13
2018-03-26T02:09:27.330Z,63.23
2018-03-26T02:11:10.446Z,52.70
2018-03-26T02:12:53.581Z,51.93
2018-03-26T02:14:36.700Z,46.83
2018-03-26T02:16:19.822Z,90.73
2018-03-26T02:18:03.019Z,52.43
2018-03-26T02:19:46.129Z,51.30
2018-03-26T02:21:29.257Z,47.00
2018-03-26T02:23:12.409Z,47.87
2018-03-26T02:24:56.298Z,54.03
2018-03-26T02:26:39.498Z,57.10
2018-03-26T02:28:23.361Z,68.33
2018-03-26T02:30:06.469Z,64.50
2018-03-26T02:31:49.578Z,55.37
2018-03-26T02:33:32.716Z,50.33
2018-03-26T02:35:15.935Z,61.03
2018-03-26T02:36:59.040Z,61.40
2018-03-26T02:38:42.183Z,58.23
2018-03-26T02:40:25.315Z,56.03
2018-03-26T02:42:09.212Z,51.50
2018-03-26T02:43:52.340Z,55.23
2018-03-26T02:45:35.548Z,54.27
2018-03-26T02:47:18.660Z,47.50
2018-03-26T02:49:01.781Z,45.57
2018-03-26T02:50:44.941Z,54.93
2018-03-26T02:52:28.012Z,56.90
2018-03-26T02:54:11.232Z,58.03
2018-03-26T02:55:54.344Z,53.40
2018-03-26T02:57:37.472Z,55.50
2018-03-26T02:59:20.601Z,53.90
2018-03-26T03:01:03.803Z,50.90
2018-03-26T03:02:46.942Z,59.77
2018-03-26T03:04:30.909Z,57.00
2018-03-26T03:06:14.081Z,56.57
2018-03-26T03:07:57.292Z,46.00
2018-03-26T03:09:40.430Z,57.27
2018-03-26T03:11:24.328Z,57.80
2018-03-26T03:13:07.564Z,50.40
2018-03-26T03:14:50.813Z,56.70
2018-03-26T03:16:34.681Z,59.03
2018-03-26T03:18:17.863Z,57.80
2018-03-26T03:20:01.737Z,57.33
2018-03-26T03:21:44.840Z,51.20
2018-03-26T03:23:28.307Z,56.30
2018-03-26T03:25:11.429Z,46.47
2018-03-26T03:26:54.545Z,47.33
2018-03-26T03:28:37.675Z,48.63
2018-03-26T03:30:21.622Z,52.43
2018-03-26T03:32:04.811Z,46.30
2018-03-26T03:33:48.020Z,41.33
2018-03-26T03:35:31.146Z,49.53
2018-03-26T03:37:14.253Z,45.00
2018-03-26T03:38:57.689Z,47.37
2018-03-26T03:40:40.803Z,57.70
2018-03-26T03:42:23.932Z,52.00
2018-03-26T03:44:07.062Z,43.00
2018-03-26T03:45:51.834Z,46.77
2018-03-26T03:47:34.955Z,53.57
2018-03-26T03:49:18.368Z,45.27
2018-03-26T03:51:02.255Z,53.13
2018-03-26T03:52:45.367Z,52.27
2018-03-26T03:54:28.516Z,47.60
2018-03-26T03:56:12.412Z,42.57
2018-03-26T03:57:55.542Z,54.07
2018-03-26T03:59:38.682Z,57.23
2018-03-26T04:01:21.898Z,59.87
2018-03-26T04:03:05.787Z,55.60
2018-03-26T04:04:48.921Z,49.20
2018-03-26T04:06:32.036Z,44.70
2018-03-26T04:08:15.156Z,55.70
2018-03-26T04:09:58.300Z,50.17
2018-03-26T04:11:42.241Z,52.37
2018-03-26T04:13:26.158Z,49.20
2018-03-26T04:15:09.296Z,44.97
2018-03-26T04:16:53.180Z,46.43
2018-03-26T04:18:36.326Z,44.77
2018-03-26T04:20:19.539Z,51.93
2018-03-26T04:22:02.652Z,52.43
2018-03-26T04:23:45.764Z,55.10
2018-03-26T04:25:28.921Z,47.17
2018-03-26T04:27:12.049Z,50.83
2018-03-26T04:28:55.186Z,52.50
2018-03-26T04:30:38.636Z,59.30
2018-03-26T04:32:21.765Z,56.83
2018-03-26T04:34:04.875Z,51.90
2018-03-26T04:35:48.296Z,57.90
2018-03-26T04:37:31.416Z,55.07
2018-03-26T04:39:14.624Z,52.97
2018-03-26T04:40:58.026Z,50.33
2018-03-26T04:42:41.144Z,51.87
2018-03-26T04:44:24.261Z,51.10
2018-03-26T04:46:07.404Z,52.23
2018-03-26T04:47:50.529Z,59.50
2018-03-26T04:49:33.757Z,63.40
2018-03-26T04:51:16.895Z,56.20
2018-03-26T04:53:00.787Z,48.70
2018-03-26T04:54:43.919Z,58.07
2018-03-26T04:56:27.047Z,56.80
2018-03-26T04:58:10.264Z,52.03
2018-03-26T04:59:54.180Z,49.13
2018-03-26T05:01:44.502Z,49.17
2018-03-26T05:03:31.229Z,53.10
2018-03-26T05:05:14.346Z,48.03
2018-03-26T05:06:57.498Z,49.53
2018-03-26T05:08:40.616Z,61.03
2018-03-26T05:10:23.865Z,50.80
2018-03-26T05:12:07.879Z,59.50
2018-03-26T05:13:51.000Z,54.60
2018-03-26T05:15:34.123Z,60.07
2018-03-26T05:17:17.320Z,55.13
2018-03-26T05:19:00.438Z,52.80
2018-03-26T05:20:43.573Z,52.90
2018-03-26T05:22:26.789Z,52.30
2018-03-26T05:24:10.689Z,54.10
2018-03-26T05:25:53.839Z,50.80
2018-03-26T05:27:37.045Z,52.67
2018-03-26T05:29:20.164Z,51.07
2018-03-26T05:31:03.296Z,50.80
2018-03-26T05:32:46.500Z,67.30
2018-03-26T05:34:29.634Z,57.63
2018-03-26T05:36:13.529Z,62.17
2018-03-26T05:37:56.765Z,66.40
2018-03-26T05:39:39.893Z,59.27
2018-03-26T05:41:23.100Z,62.90
2018-03-26T05:43:06.243Z,60.00
2018-03-26T05:44:50.117Z,61.27
2018-03-26T05:46:33.277Z,71.70
2018-03-26T05:48:16.431Z,62.07
2018-03-26T05:49:59.548Z,62.63
2018-03-26T05:51:42.684Z,63.43
2018-03-26T05:53:25.828Z,58.23
2018-03-26T05:55:09.834Z,52.97
2018-03-26T05:56:53.138Z,55.80
2018-03-26T05:58:36.425Z,55.20
2018-03-26T06:00:19.654Z,56.30
2018-03-26T06:02:03.772Z,66.17
2018-03-26T06:03:47.003Z,60.77
2018-03-26T06:05:30.968Z,58.17
2018-03-26T06:07:14.540Z,55.20
2018-03-26T06:08:57.689Z,72.03
2018-03-26T06:10:41.595Z,57.77
2018-03-26T06:12:24.705Z,54.67
2018-03-26T06:14:08.165Z,58.30
2018-03-26T06:15:52.048Z,59.13
2018-03-26T06:17:35.168Z,56.90
2018-03-26T06:19:18.715Z,65.07
2018-03-26T06:21:01.864Z,63.70
2018-03-26T06:22:45.749Z,63.93
2018-03-26T06:24:28.931Z,65.00
2018-03-26T06:26:12.073Z,54.77
2018-03-26T06:27:55.189Z,58.63
2018-03-26T06:29:38.365Z,68.70
2018-03-26T06:31:22.249Z,62.20
2018-03-26T06:33:05.372Z,58.23
2018-03-26T06:34:48.530Z,57.60
2018-03-26T06:36:38.021Z,61.07
2018-03-26T06:40:44.431Z,61.60
2018-03-26T06:42:27.577Z,64.70
2018-03-26T06:44:10.744Z,69.37
2018-03-26T06:45:54.611Z,58.53
2018-03-26T06:47:37.890Z,67.50
2018-03-26T06:49:21.081Z,71.37
2018-03-26T06:51:04.980Z,61.97
2018-03-26T06:52:48.126Z,62.90
2018-03-26T06:54:31.302Z,59.73
2018-03-26T06:56:14.454Z,53.60
2018-03-26T06:57:57.570Z,56.50
2018-03-26T06:59:40.690Z,68.83
2018-03-26T07:01:23.822Z,68.33
2018-03-26T07:03:07.692Z,56.10
2018-03-26T07:04:50.860Z,61.77
2018-03-26T07:06:34.751Z,66.40
2018-03-26T07:08:17.871Z,66.83
2018-03-26T07:10:01.003Z,67.40
2018-03-26T07:11:44.125Z,62.77
2018-03-26T07:13:27.244Z,63.47
2018-03-26T07:15:10.391Z,64.57
2018-03-26T07:16:55.337Z,62.40
2018-03-26T07:18:38.548Z,85.03
2018-03-26T07:20:21.756Z,62.53
2018-03-26T07:22:04.968Z,62.03
2018-03-26T07:23:48.102Z,59.73
2018-03-26T07:25:31.228Z,80.90
2018-03-26T07:27:15.136Z,73.10
2018-03-26T07:28:58.323Z,62.73
2018-03-26T07:30:41.473Z,60.10
2018-03-26T07:32:24.585Z,70.03
2018-03-26T07:34:07.704Z,59.50
2018-03-26T07:35:50.851Z,65.30
2018-03-26T07:37:34.731Z,64.40
2018-03-26T07:39:17.897Z,61.47
2018-03-26T07:41:01.845Z,65.93
2018-03-26T07:42:45.805Z,68.23
2018-03-26T07:44:29.698Z,69.90
2018-03-26T07:46:13.619Z,69.63
2018-03-26T07:47:56.839Z,57.03
2018-03-26T07:49:39.958Z,59.67
2018-03-26T07:51:23.856Z,51.33
2018-03-26T07:53:07.014Z,44.93
2018-03-26T07:54:50.114Z,41.80
2018-03-26T07:56:33.240Z,51.80
2018-03-26T07:58:16.466Z,50.17
2018-03-26T08:00:01.118Z,50.13
2018-03-26T08:01:45.101Z,44.00
2018-03-26T08:03:28.216Z,60.40
2018-03-26T08:05:11.355Z,51.50
2018-03-26T08:06:54.510Z,41.93
2018-03-26T08:08:39.172Z,46.50
2018-03-26T08:10:23.090Z,44.23
2018-03-26T08:12:06.328Z,45.00
2018-03-26T08:13:50.228Z,46.73
2018-03-26T08:15:33.372Z,47.50
2018-03-26T08:17:17.305Z,46.07
2018-03-26T08:19:00.518Z,50.70
2018-03-26T08:20:44.464Z,49.33
2018-03-26T08:22:27.661Z,53.30
2018-03-26T08:24:10.877Z,50.30
2018-03-26T08:25:54.100Z,53.33
2018-03-26T08:27:37.269Z,56.70
2018-03-26T08:29:20.388Z,54.67
2018-03-26T08:31:03.572Z,66.53
2018-03-26T08:32:46.784Z,49.60
2018-03-26T08:34:29.913Z,54.43
2018-03-26T08:36:13.817Z,54.03
2018-03-26T08:37:57.045Z,54.23
2018-03-26T08:39:40.952Z,56.80
2018-03-26T08:41:24.093Z,52.03
2018-03-26T08:43:07.219Z,59.20
2018-03-26T08:44:50.428Z,58.50
2018-03-26T08:46:33.660Z,57.97
2018-03-26T08:48:16.803Z,55.17
2018-03-26T08:50:00.107Z,53.63
2018-03-26T08:51:43.212Z,53.97
2018-03-26T08:53:29.364Z,53.10
2018-03-26T08:55:10.266Z,58.00
2018-03-26T08:56:53.418Z,59.10
2018-03-26T08:58:36.610Z,64.23
2018-03-26T09:00:20.497Z,63.47
2018-03-26T09:02:03.643Z,60.03
2018-03-26T09:03:47.536Z,61.47
2018-03-26T09:05:30.656Z,67.33
2018-03-26T09:07:13.794Z,56.37
2018-03-26T09:08:56.941Z,66.30
2018-03-26T09:10:40.878Z,52.33
2018-03-26T09:12:24.791Z,56.33
2018-03-26T09:14:07.926Z,56.13
2018-03-26T09:15:51.040Z,53.80
2018-03-26T09:17:34.283Z,62.33
2018-03-26T09:19:18.174Z,65.63
2018-03-26T09:21:02.053Z,56.63
2018-03-26T09:22:45.202Z,60.30
2018-03-26T09:24:28.337Z,60.00
2018-03-26T09:26:11.456Z,68.40
2018-03-26T09:27:54.621Z,54.10
2018-03-26T09:29:37.760Z,59.97
2018-03-26T09:31:20.884Z,61.57
2018-03-26T09:33:04.025Z,64.27
2018-03-26T09:34:48.697Z,68.63
2018-03-26T09:36:31.833Z,67.83
2018-03-26T09:38:15.840Z,64.30
2018-03-26T09:39:59.773Z,72.40
2018-03-26T09:41:44.433Z,57.00
2018-03-26T09:43:29.065Z,65.30
2018-03-26T09:45:12.180Z,62.57
2018-03-26T09:46:55.569Z,66.23
2018-03-26T09:48:38.702Z,66.50
2018-03-26T09:50:21.831Z,65.93
2018-03-26T09:52:04.973Z,53.20
2018-03-26T09:53:48.308Z,66.23
2018-03-26T09:55:32.197Z,59.47
2018-03-26T09:57:15.349Z,64.50
2018-03-26T09:58:58.554Z,65.30
2018-03-26T10:00:47.415Z,62.00
2018-03-26T10:02:32.258Z,62.93
2018-03-26T10:04:15.576Z,61.70
2018-03-26T10:05:58.681Z,63.17
2018-03-26T10:07:41.833Z,67.87
2018-03-26T10:09:25.760Z,65.17
2018-03-26T10:11:08.971Z,61.83
2018-03-26T10:12:52.209Z,70.77
2018-03-26T10:14:36.115Z,57.67
2018-03-26T10:16:19.232Z,70.47
2018-03-26T10:18:02.460Z,71.43
2018-03-26T10:19:46.409Z,71.03
2018-03-26T10:21:29.505Z,70.43
2018-03-26T10:23:12.636Z,66.13
2018-03-26T10:24:55.772Z,71.57
2018-03-26T10:26:38.939Z,68.17
2018-03-26T10:28:22.177Z,64.83
2018-03-26T10:30:05.415Z,79.33
2018-03-26T10:31:48.516Z,67.17
2018-03-26T10:33:32.461Z,69.70
2018-03-26T10:35:15.570Z,68.00
2018-03-26T10:36:59.517Z,68.07
2018-03-26T10:38:43.428Z,72.73
2018-03-26T10:40:26.573Z,77.87
2018-03-26T10:42:10.480Z,80.10
2018-03-26T10:43:53.729Z,70.03
2018-03-26T10:45:37.661Z,79.33
2018-03-26T10:47:21.551Z,73.10
2018-03-26T10:49:04.793Z,73.47
2018-03-26T10:50:47.912Z,77.97
2018-03-26T10:52:31.085Z,79.93
2018-03-26T10:54:14.203Z,84.93
2018-03-26T10:55:57.387Z,82.23
2018-03-26T10:57:41.286Z,81.87
2018-03-26T10:59:24.437Z,89.90
2018-03-26T11:01:08.368Z,83.40
2018-03-26T11:02:52.265Z,86.50
2018-03-26T11:04:35.405Z,81.70
2018-03-26T11:06:18.619Z,78.60
2018-03-26T11:08:01.778Z,80.23
2018-03-26T11:09:44.968Z,81.27
2018-03-26T11:11:28.100Z,79.63
2018-03-26T11:13:12.012Z,81.53
2018-03-26T11:14:55.138Z,90.67
2018-03-26T11:16:39.061Z,75.83
2018-03-26T11:18:23.005Z,86.93
2018-03-26T11:20:06.159Z,85.03
2018-03-26T11:21:49.288Z,86.27
2018-03-26T11:23:32.462Z,102.40
2018-03-26T11:25:15.646Z,85.67
2018-03-26T11:26:58.757Z,77.03
2018-03-26T11:28:42.005Z,79.77
2018-03-26T11:30:25.900Z,93.53
2018-03-26T11:32:09.050Z,85.80
2018-03-26T11:33:52.989Z,84.10
2018-03-26T11:35:36.938Z,75.33
2018-03-26T11:37:20.858Z,93.40
2018-03-26T11:39:04.767Z,84.17
2018-03-26T11:40:47.896Z,87.67
2018-03-26T11:42:31.036Z,85.03
2018-03-26T11:44:14.180Z,91.33
2018-03-26T11:45:57.293Z,87.87
2018-03-26T11:47:41.190Z,85.73
2018-03-26T11:49:24.420Z,82.50
2018-03-26T11:51:07.554Z,98.47
2018-03-26T11:52:51.456Z,85.80
2018-03-26T11:54:34.676Z,87.60
2018-03-26T11:56:17.895Z,90.00
2018-03-26T11:58:01.095Z,92.20
2018-03-26T11:59:44.234Z,95.47
2018-03-26T12:01:27.481Z,92.67
2018-03-26T12:03:11.494Z,87.87
2018-03-26T12:04:55.426Z,92.67
2018-03-26T12:06:39.334Z,90.77
2018-03-26T12:08:22.568Z,95.57
2018-03-26T12:10:05.790Z,88.47
2018-03-26T12:11:49.010Z,88.10
2018-03-26T12:13:32.152Z,87.53
2018-03-26T12:15:16.051Z,92.30
2018-03-26T12:16:59.180Z,81.97
2018-03-26T12:18:42.393Z,79.43
2018-03-26T12:20:43.436Z,73.30
2018-03-26T12:22:26.602Z,82.50
2018-03-26T12:26:36.551Z,68.43
2018-03-26T12:28:37.750Z,68.20
2018-03-26T12:30:27.723Z,67.47
2018-03-26T12:32:10.945Z,63.97
2018-03-26T12:34:11.849Z,65.03
2018-03-26T12:35:57.571Z,65.50
2018-03-26T12:37:41.465Z,55.20
2018-03-26T12:39:24.628Z,64.13
2018-03-26T12:41:08.524Z,56.17
2018-03-26T12:42:51.676Z,60.23
2018-03-26T12:44:53.505Z,55.30
2018-03-26T12:46:45.909Z,55.37
2018-03-26T12:48:29.034Z,50.97
2018-03-26T12:50:12.180Z,56.27
2018-03-26T12:52:13.401Z,46.70
2018-03-26T12:53:56.522Z,50.73
2018-03-26T12:55:39.775Z,53.27
2018-03-26T12:57:41.114Z,54.57
2018-03-26T12:59:25.115Z,50.83
2018-03-26T13:01:26.240Z,47.23
2018-03-26T13:03:09.356Z,42.33
2018-03-26T13:04:52.506Z,48.37
2018-03-26T13:06:35.642Z,46.60
2018-03-26T13:08:18.864Z,51.10
2018-03-26T13:10:02.781Z,49.30
2018-03-26T13:11:45.999Z,43.20
2018-03-26T13:13:29.223Z,50.47
2018-03-26T13:15:12.449Z,48.03
2018-03-26T13:16:55.649Z,47.80
2018-03-26T13:18:38.861Z,50.40
2018-03-26T13:20:21.997Z,51.47
2018-03-26T13:22:06.962Z,48.17
2018-03-26T13:23:50.877Z,48.80
2018-03-26T13:25:34.002Z,48.17
2018-03-26T13:27:17.420Z,45.17
2018-03-26T13:29:00.560Z,49.03
2018-03-26T13:30:44.473Z,51.47
2018-03-26T13:32:27.657Z,59.20
2018-03-26T13:34:10.812Z,52.03
2018-03-26T13:35:54.046Z,49.60
2018-03-26T13:37:37.179Z,51.83
2018-03-26T13:39:21.065Z,54.73
2018-03-26T13:41:04.216Z,59.13
2018-03-26T13:42:48.430Z,52.50
2018-03-26T13:44:31.552Z,58.50
2018-03-26T13:46:14.720Z,59.43
2018-03-26T13:47:57.891Z,71.10
2018-03-26T13:49:41.107Z,63.03
2018-03-26T13:51:24.215Z,63.70
2018-03-26T13:53:07.687Z,54.80
2018-03-26T13:54:50.907Z,60.97
2018-03-26T13:56:34.042Z,65.53
2018-03-26T13:58:17.246Z,64.43
2018-03-26T14:00:01.874Z,68.83
2018-03-26T14:01:45.828Z,67.07
2018-03-26T14:03:29.338Z,69.03
2018-03-26T14:05:13.212Z,78.83
2018-03-26T14:06:56.393Z,61.03
2018-03-26T14:08:58.223Z,71.57
2018-03-26T14:10:59.098Z,75.57
2018-03-26T14:13:00.409Z,79.57
2018-03-26T14:15:02.418Z,71.23
2018-03-26T14:17:03.410Z,67.80
2018-03-26T14:18:47.319Z,68.47
2018-03-26T14:20:30.531Z,60.23
2018-03-26T14:22:13.657Z,72.23
2018-03-26T14:23:56.893Z,75.30
2018-03-26T14:25:40.047Z,74.53
2018-03-26T14:27:23.225Z,63.97
2018-03-26T14:29:07.131Z,68.67
2018-03-26T14:30:50.300Z,61.20
2018-03-26T14:32:34.202Z,64.33
2018-03-26T14:34:17.430Z,58.07
2018-03-26T14:36:00.651Z,57.57
2018-03-26T14:37:43.846Z,54.60
2018-03-26T14:39:26.969Z,53.10
2018-03-26T14:41:10.187Z,53.63
2018-03-26T14:42:53.300Z,54.30
2018-03-26T14:44:36.430Z,46.53
2018-03-26T14:46:21.064Z,52.97
2018-03-26T14:48:04.190Z,46.07
2018-03-26T14:49:47.356Z,48.90
2018-03-26T14:51:31.361Z,51.03
2018-03-26T14:53:14.543Z,47.83
2018-03-26T14:54:57.678Z,42.00
2018-03-26T14:56:40.929Z,41.97
2018-03-26T14:58:24.841Z,78.87
2018-03-26T15:00:08.783Z,44.57
2018-03-26T15:01:51.915Z,42.87
2018-03-26T15:03:35.835Z,39.80
2018-03-26T15:05:19.059Z,43.23
2018-03-26T15:07:02.976Z,37.13
2018-03-26T15:08:47.650Z,30.63
2018-03-26T15:10:31.576Z,31.77
2018-03-26T15:12:14.790Z,40.90
2018-03-26T15:13:58.704Z,36.60
2018-03-26T15:15:41.946Z,36.20
2018-03-26T15:17:25.854Z,29.03
2018-03-26T15:19:09.007Z,22.77
2018-03-26T15:20:52.908Z,27.50
2018-03-26T15:22:36.111Z,26.80
2018-03-26T15:24:19.258Z,33.03
2018-03-26T15:26:03.495Z,27.10
2018-03-26T15:27:46.612Z,25.63
2018-03-26T15:29:29.728Z,38.57
2018-03-26T15:31:12.928Z,28.10
2018-03-26T15:32:56.284Z,21.03
2018-03-26T15:34:40.897Z,29.10
2018-03-26T15:36:24.043Z,20.17
2018-03-26T15:38:07.274Z,21.77
2018-03-26T15:39:50.391Z,24.63
2018-03-26T15:41:33.528Z,20.43
2018-03-26T15:43:16.776Z,27.03
2018-03-26T15:44:59.906Z,22.40
2018-03-26T15:46:43.031Z,14.63
2018-03-26T15:48:26.158Z,19.57
2018-03-26T15:50:09.274Z,22.93
2018-03-26T15:51:52.412Z,14.60
2018-03-26T15:53:36.297Z,17.90
2018-03-26T15:55:19.668Z,26.43
2018-03-26T15:57:03.592Z,23.53
2018-03-26T15:58:47.512Z,15.60
2018-03-26T16:00:30.650Z,12.50
2018-03-26T16:02:13.992Z,16.03
2018-03-26T16:03:57.904Z,13.20
2018-03-26T16:05:41.819Z,15.93
2018-03-26T16:07:25.077Z,12.77
2018-03-26T16:09:09.033Z,19.23
2018-03-26T16:10:52.156Z,19.10
2018-03-26T16:12:35.311Z,19.13
2018-03-26T16:14:18.426Z,11.70
2018-03-26T16:16:01.649Z,28.07
2018-03-26T16:17:44.891Z,32.30
2018-03-26T16:19:28.756Z,31.20
2018-03-26T16:21:11.955Z,19.03
2018-03-26T16:22:55.076Z,20.23
2018-03-26T16:24:38.205Z,17.30
2018-03-26T16:26:21.379Z,28.93
2018-03-26T16:28:04.617Z,26.00
2018-03-26T16:29:48.525Z,15.63
2018-03-26T16:31:32.453Z,11.20
2018-03-26T16:33:15.564Z,18.87
2018-03-26T16:34:58.685Z,16.57
2018-03-26T16:36:41.933Z,22.80
2018-03-26T16:38:25.825Z,18.90
2018-03-26T16:40:08.971Z,21.20
2018-03-26T16:41:53.835Z,18.70
2018-03-26T16:43:37.024Z,15.20
2018-03-26T16:45:20.133Z,17.13
2018-03-26T16:47:03.273Z,21.23
2018-03-26T16:48:46.406Z,19.97
2018-03-26T16:50:30.272Z,15.83
2018-03-26T16:52:13.396Z,17.70
2018-03-26T16:53:56.601Z,18.40
2018-03-26T16:55:39.740Z,18.47
2018-03-26T16:57:22.868Z,21.80
2018-03-26T16:59:06.013Z,17.10
2018-03-26T17:00:49.130Z,15.17
2018-03-26T17:02:32.252Z,14.33
2018-03-26T17:04:15.388Z,18.90
2018-03-26T17:05:58.590Z,11.33
2018-03-26T17:07:42.830Z,19.40
2018-03-26T17:09:26.706Z,14.90
2018-03-26T17:11:09.829Z,14.93
2018-03-26T17:12:52.954Z,15.00
2018-03-26T17:14:36.099Z,15.37
2018-03-26T17:16:19.211Z,14.87
2018-03-26T17:18:02.463Z,18.20
2018-03-26T17:19:46.339Z,13.23
2018-03-26T17:21:29.466Z,14.07
2018-03-26T17:23:12.616Z,15.53
2018-03-26T17:24:56.507Z,12.10
2018-03-26T17:26:39.663Z,13.70
2018-03-26T17:28:22.864Z,13.77
2018-03-26T17:30:05.990Z,11.17
2018-03-26T17:31:49.141Z,14.60
2018-03-26T17:33:32.284Z,15.10
2018-03-26T17:35:15.404Z,15.20
2018-03-26T17:36:58.530Z,17.13
2018-03-26T17:38:41.878Z,11.77
2018-03-26T17:40:25.052Z,15.73
2018-03-26T17:42:08.224Z,14.93
2018-03-26T17:43:51.650Z,13.23
2018-03-26T17:45:34.852Z,12.93
2018-03-26T17:47:18.214Z,12.40
2018-03-26T17:49:01.361Z,16.33
2018-03-26T17:50:44.485Z,13.37
2018-03-26T17:52:28.227Z,14.93
2018-03-26T17:54:11.382Z,23.80
2018-03-26T17:55:55.268Z,24.23
2018-03-26T17:57:38.411Z,18.07
2018-03-26T17:59:21.708Z,12.77
2018-03-26T18:01:04.845Z,14.03
2018-03-26T18:02:47.955Z,11.87
2018-03-26T18:04:31.142Z,13.73
2018-03-26T18:06:14.252Z,14.07
2018-03-26T18:07:57.371Z,17.20
2018-03-26T18:09:40.535Z,13.07
2018-03-26T18:11:23.745Z,14.83
2018-03-26T18:13:06.853Z,21.43
2018-03-26T18:14:50.088Z,14.30
2018-03-26T18:16:33.209Z,20.70
2018-03-26T18:18:16.342Z,16.30
2018-03-26T18:20:00.266Z,11.20
2018-03-26T18:21:44.147Z,33.00
2018-03-26T18:23:27.254Z,13.50
2018-03-26T18:25:10.457Z,11.27
2018-03-26T18:26:54.326Z,14.30
2018-03-26T18:28:37.441Z,14.13
2018-03-26T18:30:20.566Z,26.13
2018-03-26T18:32:03.755Z,13.27
2018-03-26T18:33:46.883Z,13.63
2018-03-26T18:35:30.014Z,13.50
2018-03-26T18:37:13.129Z,17.33
2018-03-26T18:38:56.263Z,20.87
2018-03-26T18:40:40.908Z,14.90
2018-03-26T18:42:24.049Z,12.97
2018-03-26T18:44:07.185Z,12.50
2018-03-26T18:45:50.309Z,19.67
2018-03-26T18:47:33.413Z,12.63
2018-03-26T18:49:18.155Z,14.40
2018-03-26T18:51:02.094Z,14.40
2018-03-26T18:52:46.008Z,8.40
2018-03-26T18:54:29.159Z,15.10
2018-03-26T18:56:13.049Z,19.70
2018-03-26T18:57:56.177Z,22.40
2018-03-26T18:59:39.316Z,15.27
2018-03-26T19:01:23.236Z,19.50
2018-03-26T19:03:07.153Z,11.77
2018-03-26T19:04:50.312Z,16.70
2018-03-26T19:06:34.218Z,12.50
2018-03-26T19:08:17.531Z,12.30
2018-03-26T19:10:00.730Z,18.80
2018-03-26T19:11:43.912Z,15.53
2018-03-26T19:13:27.183Z,15.33
2018-03-26T19:15:11.286Z,14.80
2018-03-26T19:16:54.418Z,11.73
2018-03-26T19:18:37.535Z,14.47
2018-03-26T19:20:20.697Z,18.73
2018-03-26T19:22:04.801Z,18.60
2018-03-26T19:23:47.917Z,19.80
2018-03-26T19:25:31.040Z,11.77
2018-03-26T19:27:14.384Z,10.00
2018-03-26T19:28:57.498Z,10.50
2018-03-26T19:30:40.654Z,11.33
2018-03-26T19:32:23.815Z,12.60
2018-03-26T19:34:06.950Z,13.83
2018-03-26T19:35:50.092Z,13.47
2018-03-26T19:37:34.003Z,13.10
2018-03-26T19:39:17.229Z,11.00
2018-03-26T19:41:01.133Z,8.93
2018-03-26T19:42:44.278Z,11.73
2018-03-26T19:44:27.408Z,15.87
2018-03-26T19:46:11.313Z,16.80
2018-03-26T19:47:54.561Z,12.93
2018-03-26T19:49:38.447Z,10.40
2018-03-26T19:51:21.585Z,15.57
2018-03-26T19:53:04.702Z,13.83
2018-03-26T19:54:48.643Z,12.17
2018-03-26T19:56:31.782Z,14.47
2018-03-26T19:58:15.711Z,14.97
2018-03-26T19:59:58.831Z,15.70
2018-03-26T20:01:42.759Z,17.97
2018-03-26T20:03:26.649Z,13.10
2018-03-26T20:05:09.763Z,13.30
2018-03-26T20:06:52.921Z,20.33
2018-03-26T20:08:36.057Z,16.50
2018-03-26T20:10:19.965Z,11.40
2018-03-26T20:12:03.191Z,17.17
2018-03-26T20:13:46.301Z,13.53
2018-03-26T20:15:29.480Z,13.00
2018-03-26T20:17:12.638Z,25.47
2018-03-26T20:18:56.578Z,12.30
2018-03-26T20:20:39.705Z,13.23
2018-03-26T20:22:23.599Z,13.63
2018-03-26T20:24:06.961Z,11.93
2018-03-26T20:25:50.881Z,11.57
2018-03-26T20:27:34.025Z,12.90
2018-03-26T20:29:17.731Z,12.83
2018-03-26T20:31:00.947Z,16.17
2018-03-26T20:32:44.120Z,17.03
2018-03-26T20:34:27.241Z,11.77
2018-03-26T20:36:10.368Z,13.50
2018-03-26T20:37:53.525Z,13.87
2018-03-26T20:39:37.421Z,14.00
2018-03-26T20:41:20.573Z,11.33
2018-03-26T20:43:04.516Z,21.03
2018-03-26T20:44:48.410Z,12.63
2018-03-26T20:46:31.563Z,18.10
2018-03-26T20:48:15.479Z,15.73
2018-03-26T20:49:58.610Z,9.40
2018-03-26T20:51:42.127Z,11.47
2018-03-26T20:53:25.356Z,12.20
2018-03-26T20:55:09.295Z,12.83
2018-03-26T20:56:53.243Z,11.40
2018-03-26T20:58:36.452Z,11.80
2018-03-26T21:00:20.364Z,13.27
2018-03-26T21:02:04.531Z,14.57
2018-03-26T21:03:48.401Z,14.40
2018-03-26T21:05:31.528Z,10.60
2018-03-26T21:07:14.646Z,14.53
2018-03-26T21:08:57.757Z,18.27
2018-03-26T21:10:40.962Z,15.47
2018-03-26T21:12:24.120Z,17.23
2018-03-26T21:14:07.253Z,11.93
2018-03-26T21:15:50.373Z,26.37
2018-03-26T21:17:34.288Z,8.17
2018-03-26T21:19:17.422Z,13.57
2018-03-26T21:21:01.302Z,10.80
2018-03-26T21:22:44.435Z,15.90
2018-03-26T21:24:27.562Z,12.17
2018-03-26T21:26:10.698Z,19.13
2018-03-26T21:27:53.862Z,11.33
2018-03-26T21:29:37.043Z,14.17
2018-03-26T21:31:20.979Z,11.93
2018-03-26T21:33:04.913Z,13.27
2018-03-26T21:34:48.852Z,13.50
2018-03-26T21:36:33.097Z,11.47
2018-03-26T21:38:17.024Z,12.57
2018-03-26T21:40:00.967Z,13.80
2018-03-26T21:41:44.867Z,15.90
2018-03-26T21:43:28.029Z,11.10
2018-03-26T21:45:11.937Z,12.03
2018-03-26T21:46:55.062Z,10.50
2018-03-26T21:48:38.192Z,12.83
2018-03-26T21:50:22.091Z,11.17
2018-03-26T21:52:05.197Z,13.57
2018-03-26T21:53:49.156Z,12.17
2018-03-26T21:55:33.094Z,12.37
2018-03-26T21:57:16.237Z,15.90
2018-03-26T21:58:59.378Z,16.50
2018-03-26T22:00:42.515Z,11.73
2018-03-26T22:02:25.664Z,15.60
2018-03-26T22:04:08.848Z,14.90
2018-03-26T22:05:51.965Z,19.47
2018-03-26T22:07:35.208Z,11.40
2018-03-26T22:09:18.365Z,12.40
2018-03-26T22:11:01.638Z,12.13
2018-03-26T22:12:44.779Z,13.20
2018-03-26T22:14:28.685Z,11.03
2018-03-26T22:16:11.801Z,12.30
2018-03-26T22:17:54.938Z,11.97
2018-03-26T22:19:38.064Z,19.53